sensor_id;sensor_type;location;lat;lon;timestamp;temperature;humidity
15656;DHT22;7928;43.614;1.456;2022-12-29T00:01:41;10.40;99.90
15656;DHT22;7928;43.614;1.456;2022-12-29T00:04:12;10.40;99.90
15656;DHT22;7928;43.614;1.456;2022-12-29T00:06:41;10.40;99.90
15656;DHT22;7928;43.614;1.456;2022-12-29T00:09:09;10.40;99.90
15656;DHT22;7928;43.614;1.456;2022-12-29T00:11:36;10.40;99.90
15656;DHT22;7928;43.614;1.456;2022-12-29T00:14:04;10.40;99.90
15656;DHT22;7928;43.614;1.456;2022-12-29T00:16:48;10.40;99.90
15656;DHT22;7928;43.614;1.456;2022-12-29T00:19:15;10.50;99.90
15656;DHT22;7928;43.614;1.456;2022-12-29T00:22:01;10.50;99.90
15656;DHT22;7928;43.614;1.456;2022-12-29T00:24:45;10.50;99.90
15656;DHT22;7928;43.614;1.456;2022-12-29T00:27:31;10.60;99.90
15656;DHT22;7928;43.614;1.456;2022-12-29T00:30:17;10.50;99.90
15656;DHT22;7928;43.614;1.456;2022-12-29T00:33:09;10.50;99.90
15656;DHT22;7928;43.614;1.456;2022-12-29T00:35:56;10.50;99.90
15656;DHT22;7928;43.614;1.456;2022-12-29T00:38:26;10.50;99.90
15656;DHT22;7928;43.614;1.456;2022-12-29T00:41:11;10.50;99.90
15656;DHT22;7928;43.614;1.456;2022-12-29T00:43:55;10.50;99.90
15656;DHT22;7928;43.614;1.456;2022-12-29T00:46:36;10.50;99.90
15656;DHT22;7928;43.614;1.456;2022-12-29T00:49:04;10.50;99.90
15656;DHT22;7928;43.614;1.456;2022-12-29T00:51:49;10.50;99.90
15656;DHT22;7928;43.614;1.456;2022-12-29T00:54:18;10.60;99.90
15656;DHT22;7928;43.614;1.456;2022-12-29T00:56:46;10.60;99.90
15656;DHT22;7928;43.614;1.456;2022-12-29T00:59:14;10.60;99.90
15656;DHT22;7928;43.614;1.456;2022-12-29T01:01:41;10.60;99.90
15656;DHT22;7928;43.614;1.456;2022-12-29T01:04:09;10.60;99.90
15656;DHT22;7928;43.614;1.456;2022-12-29T01:06:37;10.60;99.90
15656;DHT22;7928;43.614;1.456;2022-12-29T01:09:05;10.60;99.90
15656;DHT22;7928;43.614;1.456;2022-12-29T01:11:52;10.60;99.90
15656;DHT22;7928;43.614;1.456;2022-12-29T01:14:19;10.60;99.90
15656;DHT22;7928;43.614;1.456;2022-12-29T01:16:46;10.60;99.90
15656;DHT22;7928;43.614;1.456;2022-12-29T01:19:14;10.70;99.90
15656;DHT22;7928;43.614;1.456;2022-12-29T01:21:41;10.70;99.90
15656;DHT22;7928;43.614;1.456;2022-12-29T01:24:08;10.70;99.90
15656;DHT22;7928;43.614;1.456;2022-12-29T01:26:35;10.70;99.90
15656;DHT22;7928;43.614;1.456;2022-12-29T01:29:04;10.80;99.90
15656;DHT22;7928;43.614;1.456;2022-12-29T01:31:31;10.70;99.90
15656;DHT22;7928;43.614;1.456;2022-12-29T01:33:58;10.70;99.90
15656;DHT22;7928;43.614;1.456;2022-12-29T01:36:25;10.70;99.90
15656;DHT22;7928;43.614;1.456;2022-12-29T01:38:52;10.70;99.90
15656;DHT22;7928;43.614;1.456;2022-12-29T01:41:19;10.70;99.90
15656;DHT22;7928;43.614;1.456;2022-12-29T01:43:48;10.70;99.90
15656;DHT22;7928;43.614;1.456;2022-12-29T01:46:33;10.60;99.90
15656;DHT22;7928;43.614;1.456;2022-12-29T01:49:08;10.60;99.90
15656;DHT22;7928;43.614;1.456;2022-12-29T01:51:40;10.60;99.90
15656;DHT22;7928;43.614;1.456;2022-12-29T01:54:11;10.60;99.90
15656;DHT22;7928;43.614;1.456;2022-12-29T01:56:39;10.60;99.90
15656;DHT22;7928;43.614;1.456;2022-12-29T01:59:10;10.60;99.90
15656;DHT22;7928;43.614;1.456;2022-12-29T02:01:40;10.60;99.90
15656;DHT22;7928;43.614;1.456;2022-12-29T02:04:09;10.60;99.90
15656;DHT22;7928;43.614;1.456;2022-12-29T02:06:41;10.50;99.90
15656;DHT22;7928;43.614;1.456;2022-12-29T02:09:10;10.50;99.90
15656;DHT22;7928;43.614;1.456;2022-12-29T02:11:39;10.50;99.90
15656;DHT22;7928;43.614;1.456;2022-12-29T02:14:09;10.50;99.90
15656;DHT22;7928;43.614;1.456;2022-12-29T02:16:46;10.50;99.90
15656;DHT22;7928;43.614;1.456;2022-12-29T02:19:47;10.50;99.90
15656;DHT22;7928;43.614;1.456;2022-12-29T02:22:27;10.50;99.90
15656;DHT22;7928;43.614;1.456;2022-12-29T02:25:35;10.50;99.90
15656;DHT22;7928;43.614;1.456;2022-12-29T02:28:26;10.50;99.90
15656;DHT22;7928;43.614;1.456;2022-12-29T02:31:08;10.50;99.90
15656;DHT22;7928;43.614;1.456;2022-12-29T02:33:48;10.50;99.90
15656;DHT22;7928;43.614;1.456;2022-12-29T02:36:24;10.50;99.90
15656;DHT22;7928;43.614;1.456;2022-12-29T02:39:02;10.50;99.90
15656;DHT22;7928;43.614;1.456;2022-12-29T02:41:33;10.50;99.90
15656;DHT22;7928;43.614;1.456;2022-12-29T02:44:05;10.50;99.90
15656;DHT22;7928;43.614;1.456;2022-12-29T02:46:40;10.50;99.90
15656;DHT22;7928;43.614;1.456;2022-12-29T02:49:12;10.50;99.90
15656;DHT22;7928;43.614;1.456;2022-12-29T02:51:46;10.50;99.90
15656;DHT22;7928;43.614;1.456;2022-12-29T02:54:16;10.50;99.90
15656;DHT22;7928;43.614;1.456;2022-12-29T02:57:01;10.60;99.90
15656;DHT22;7928;43.614;1.456;2022-12-29T02:59:28;10.60;99.90
15656;DHT22;7928;43.614;1.456;2022-12-29T03:02:18;10.60;99.90
15656;DHT22;7928;43.614;1.456;2022-12-29T03:05:00;10.60;99.90
15656;DHT22;7928;43.614;1.456;2022-12-29T03:07:36;10.60;99.90
15656;DHT22;7928;43.614;1.456;2022-12-29T03:10:19;10.60;99.90
15656;DHT22;7928;43.614;1.456;2022-12-29T03:12:56;10.60;99.90
15656;DHT22;7928;43.614;1.456;2022-12-29T03:15:49;10.60;99.90
15656;DHT22;7928;43.614;1.456;2022-12-29T03:18:34;10.60;99.90
15656;DHT22;7928;43.614;1.456;2022-12-29T03:21:09;10.70;99.90
15656;DHT22;7928;43.614;1.456;2022-12-29T03:23:39;10.70;99.90
15656;DHT22;7928;43.614;1.456;2022-12-29T03:26:10;10.70;99.90
15656;DHT22;7928;43.614;1.456;2022-12-29T03:28:40;10.70;99.90
15656;DHT22;7928;43.614;1.456;2022-12-29T03:31:09;10.80;99.90
15656;DHT22;7928;43.614;1.456;2022-12-29T03:33:39;10.80;99.90
15656;DHT22;7928;43.614;1.456;2022-12-29T03:36:12;10.80;99.90
15656;DHT22;7928;43.614;1.456;2022-12-29T03:38:44;10.80;99.90
15656;DHT22;7928;43.614;1.456;2022-12-29T03:41:16;10.80;99.90
15656;DHT22;7928;43.614;1.456;2022-12-29T03:43:45;10.80;99.90
15656;DHT22;7928;43.614;1.456;2022-12-29T03:46:12;10.80;99.90
15656;DHT22;7928;43.614;1.456;2022-12-29T03:48:41;10.90;99.90
15656;DHT22;7928;43.614;1.456;2022-12-29T03:51:08;10.80;99.90
15656;DHT22;7928;43.614;1.456;2022-12-29T03:53:35;10.80;99.90
15656;DHT22;7928;43.614;1.456;2022-12-29T03:56:02;10.80;99.90
15656;DHT22;7928;43.614;1.456;2022-12-29T03:58:29;10.90;99.90
15656;DHT22;7928;43.614;1.456;2022-12-29T04:00:56;10.90;99.90
15656;DHT22;7928;43.614;1.456;2022-12-29T04:03:23;10.90;99.90
15656;DHT22;7928;43.614;1.456;2022-12-29T04:05:52;10.90;99.90
15656;DHT22;7928;43.614;1.456;2022-12-29T04:08:19;10.90;99.90
15656;DHT22;7928;43.614;1.456;2022-12-29T04:10:47;10.90;99.90
15656;DHT22;7928;43.614;1.456;2022-12-29T04:13:14;10.90;99.90
15656;DHT22;7928;43.614;1.456;2022-12-29T04:15:42;11.00;99.90
15656;DHT22;7928;43.614;1.456;2022-12-29T04:18:10;11.00;99.90
15656;DHT22;7928;43.614;1.456;2022-12-29T04:20:37;10.90;99.90
15656;DHT22;7928;43.614;1.456;2022-12-29T04:23:23;10.90;99.90
15656;DHT22;7928;43.614;1.456;2022-12-29T04:25:50;11.00;99.90
15656;DHT22;7928;43.614;1.456;2022-12-29T04:28:18;10.90;99.90
15656;DHT22;7928;43.614;1.456;2022-12-29T04:30:45;10.90;99.90
15656;DHT22;7928;43.614;1.456;2022-12-29T04:33:12;10.90;99.90
15656;DHT22;7928;43.614;1.456;2022-12-29T04:35:40;10.90;99.90
15656;DHT22;7928;43.614;1.456;2022-12-29T04:38:07;10.90;99.90
15656;DHT22;7928;43.614;1.456;2022-12-29T04:40:35;10.90;99.90
15656;DHT22;7928;43.614;1.456;2022-12-29T04:43:04;10.90;99.90
15656;DHT22;7928;43.614;1.456;2022-12-29T04:45:31;10.90;99.90
15656;DHT22;7928;43.614;1.456;2022-12-29T04:47:58;10.90;99.90
15656;DHT22;7928;43.614;1.456;2022-12-29T04:50:26;10.90;99.90
15656;DHT22;7928;43.614;1.456;2022-12-29T04:52:53;10.90;99.90
15656;DHT22;7928;43.614;1.456;2022-12-29T04:55:20;10.90;99.90
15656;DHT22;7928;43.614;1.456;2022-12-29T04:57:49;10.90;99.90
15656;DHT22;7928;43.614;1.456;2022-12-29T05:00:16;11.00;99.90
15656;DHT22;7928;43.614;1.456;2022-12-29T05:02:43;11.00;99.90
15656;DHT22;7928;43.614;1.456;2022-12-29T05:05:10;11.10;99.90
15656;DHT22;7928;43.614;1.456;2022-12-29T05:07:37;11.10;99.90
15656;DHT22;7928;43.614;1.456;2022-12-29T05:10:05;11.10;99.90
15656;DHT22;7928;43.614;1.456;2022-12-29T05:12:33;11.20;99.90
15656;DHT22;7928;43.614;1.456;2022-12-29T05:15:02;11.10;99.90
15656;DHT22;7928;43.614;1.456;2022-12-29T05:17:30;11.20;99.90
15656;DHT22;7928;43.614;1.456;2022-12-29T05:19:57;11.20;99.90
15656;DHT22;7928;43.614;1.456;2022-12-29T05:22:24;11.20;99.90
15656;DHT22;7928;43.614;1.456;2022-12-29T05:24:52;11.20;99.90
15656;DHT22;7928;43.614;1.456;2022-12-29T05:27:19;11.20;99.90
15656;DHT22;7928;43.614;1.456;2022-12-29T05:29:46;11.10;99.90
15656;DHT22;7928;43.614;1.456;2022-12-29T05:32:15;11.20;99.90
15656;DHT22;7928;43.614;1.456;2022-12-29T05:34:42;11.20;99.90
15656;DHT22;7928;43.614;1.456;2022-12-29T05:37:09;11.20;99.90
15656;DHT22;7928;43.614;1.456;2022-12-29T05:39:36;11.20;99.90
15656;DHT22;7928;43.614;1.456;2022-12-29T05:42:03;11.10;99.90
15656;DHT22;7928;43.614;1.456;2022-12-29T05:44:30;11.20;99.90
15656;DHT22;7928;43.614;1.456;2022-12-29T05:46:57;11.20;99.90
15656;DHT22;7928;43.614;1.456;2022-12-29T05:49:25;11.20;99.90
15656;DHT22;7928;43.614;1.456;2022-12-29T05:51:52;11.20;99.90
15656;DHT22;7928;43.614;1.456;2022-12-29T05:54:19;11.20;99.90
15656;DHT22;7928;43.614;1.456;2022-12-29T05:56:46;11.20;99.90
15656;DHT22;7928;43.614;1.456;2022-12-29T05:59:13;11.20;99.90
15656;DHT22;7928;43.614;1.456;2022-12-29T06:01:40;11.20;99.90
15656;DHT22;7928;43.614;1.456;2022-12-29T06:04:07;11.20;99.90
15656;DHT22;7928;43.614;1.456;2022-12-29T06:06:36;11.20;99.90
15656;DHT22;7928;43.614;1.456;2022-12-29T06:09:03;11.20;99.90
15656;DHT22;7928;43.614;1.456;2022-12-29T06:11:30;11.20;99.90
15656;DHT22;7928;43.614;1.456;2022-12-29T06:13:57;11.20;99.90
15656;DHT22;7928;43.614;1.456;2022-12-29T06:16:24;11.10;99.90
15656;DHT22;7928;43.614;1.456;2022-12-29T06:18:51;11.20;99.90
15656;DHT22;7928;43.614;1.456;2022-12-29T06:21:18;11.10;99.90
15656;DHT22;7928;43.614;1.456;2022-12-29T06:23:46;11.10;99.90
15656;DHT22;7928;43.614;1.456;2022-12-29T06:26:13;11.10;99.90
15656;DHT22;7928;43.614;1.456;2022-12-29T06:28:40;11.00;99.90
15656;DHT22;7928;43.614;1.456;2022-12-29T06:31:09;11.00;99.90
15656;DHT22;7928;43.614;1.456;2022-12-29T06:33:36;11.00;99.90
15656;DHT22;7928;43.614;1.456;2022-12-29T06:36:04;10.90;99.90
15656;DHT22;7928;43.614;1.456;2022-12-29T06:38:31;10.90;99.90
15656;DHT22;7928;43.614;1.456;2022-12-29T06:40:59;10.90;99.90
15656;DHT22;7928;43.614;1.456;2022-12-29T06:43:26;10.90;99.90
15656;DHT22;7928;43.614;1.456;2022-12-29T06:45:53;10.90;99.90
15656;DHT22;7928;43.614;1.456;2022-12-29T06:48:20;10.90;99.90
15656;DHT22;7928;43.614;1.456;2022-12-29T06:50:47;10.90;99.90
15656;DHT22;7928;43.614;1.456;2022-12-29T06:53:15;10.90;99.90
15656;DHT22;7928;43.614;1.456;2022-12-29T06:55:42;10.90;99.90
15656;DHT22;7928;43.614;1.456;2022-12-29T06:58:10;10.80;99.90
15656;DHT22;7928;43.614;1.456;2022-12-29T07:00:37;10.90;99.90
15656;DHT22;7928;43.614;1.456;2022-12-29T07:03:05;10.90;99.90
15656;DHT22;7928;43.614;1.456;2022-12-29T07:05:32;10.80;99.90
15656;DHT22;7928;43.614;1.456;2022-12-29T07:07:59;10.80;99.90
15656;DHT22;7928;43.614;1.456;2022-12-29T07:10:26;10.80;99.90
15656;DHT22;7928;43.614;1.456;2022-12-29T07:12:53;10.80;99.90
15656;DHT22;7928;43.614;1.456;2022-12-29T07:15:22;10.80;99.90
15656;DHT22;7928;43.614;1.456;2022-12-29T07:17:49;10.80;99.90
15656;DHT22;7928;43.614;1.456;2022-12-29T07:20:16;10.80;99.90
15656;DHT22;7928;43.614;1.456;2022-12-29T07:22:43;10.80;99.90
15656;DHT22;7928;43.614;1.456;2022-12-29T07:25:10;10.80;99.90
15656;DHT22;7928;43.614;1.456;2022-12-29T07:27:37;10.80;99.90
15656;DHT22;7928;43.614;1.456;2022-12-29T07:30:05;10.80;99.90
15656;DHT22;7928;43.614;1.456;2022-12-29T07:32:34;10.80;99.90
15656;DHT22;7928;43.614;1.456;2022-12-29T07:35:02;10.80;99.90
15656;DHT22;7928;43.614;1.456;2022-12-29T07:37:29;10.80;99.90
15656;DHT22;7928;43.614;1.456;2022-12-29T07:39:56;10.80;99.90
15656;DHT22;7928;43.614;1.456;2022-12-29T07:42:23;10.80;99.90
15656;DHT22;7928;43.614;1.456;2022-12-29T07:44:50;10.80;99.90
15656;DHT22;7928;43.614;1.456;2022-12-29T07:47:17;10.80;99.90
15656;DHT22;7928;43.614;1.456;2022-12-29T07:49:45;10.90;99.90
15656;DHT22;7928;43.614;1.456;2022-12-29T07:52:13;10.90;99.90
15656;DHT22;7928;43.614;1.456;2022-12-29T07:54:40;11.00;99.90
15656;DHT22;7928;43.614;1.456;2022-12-29T07:57:07;11.00;99.90
15656;DHT22;7928;43.614;1.456;2022-12-29T07:59:34;11.00;99.90
15656;DHT22;7928;43.614;1.456;2022-12-29T08:02:01;11.00;99.90
15656;DHT22;7928;43.614;1.456;2022-12-29T08:04:28;11.10;99.90
15656;DHT22;7928;43.614;1.456;2022-12-29T08:06:56;11.10;99.90
15656;DHT22;7928;43.614;1.456;2022-12-29T08:09:23;11.10;99.90
15656;DHT22;7928;43.614;1.456;2022-12-29T08:11:51;11.10;99.90
15656;DHT22;7928;43.614;1.456;2022-12-29T08:14:18;11.20;99.90
15656;DHT22;7928;43.614;1.456;2022-12-29T08:16:45;11.20;99.90
15656;DHT22;7928;43.614;1.456;2022-12-29T08:19:12;11.30;99.90
15656;DHT22;7928;43.614;1.456;2022-12-29T08:21:39;11.30;99.90
15656;DHT22;7928;43.614;1.456;2022-12-29T08:24:08;11.30;99.90
15656;DHT22;7928;43.614;1.456;2022-12-29T08:26:35;11.40;99.90
15656;DHT22;7928;43.614;1.456;2022-12-29T08:29:02;11.40;99.90
15656;DHT22;7928;43.614;1.456;2022-12-29T08:31:29;11.50;99.90
15656;DHT22;7928;43.614;1.456;2022-12-29T08:33:56;11.60;99.90
15656;DHT22;7928;43.614;1.456;2022-12-29T08:36:25;11.60;99.90
15656;DHT22;7928;43.614;1.456;2022-12-29T08:38:52;11.70;99.90
15656;DHT22;7928;43.614;1.456;2022-12-29T08:41:20;11.70;99.90
15656;DHT22;7928;43.614;1.456;2022-12-29T08:43:48;11.70;99.90
15656;DHT22;7928;43.614;1.456;2022-12-29T08:46:16;11.80;99.90
15656;DHT22;7928;43.614;1.456;2022-12-29T08:48:43;11.80;99.90
15656;DHT22;7928;43.614;1.456;2022-12-29T08:51:10;11.80;99.90
15656;DHT22;7928;43.614;1.456;2022-12-29T08:53:37;11.80;99.90
15656;DHT22;7928;43.614;1.456;2022-12-29T08:56:05;11.90;99.90
15656;DHT22;7928;43.614;1.456;2022-12-29T08:58:34;11.90;99.90
15656;DHT22;7928;43.614;1.456;2022-12-29T09:01:01;11.90;99.90
15656;DHT22;7928;43.614;1.456;2022-12-29T09:03:28;11.90;99.90
15656;DHT22;7928;43.614;1.456;2022-12-29T09:05:56;12.00;99.90
15656;DHT22;7928;43.614;1.456;2022-12-29T09:08:23;12.00;99.90
15656;DHT22;7928;43.614;1.456;2022-12-29T09:10:50;12.10;99.90
15656;DHT22;7928;43.614;1.456;2022-12-29T09:13:18;12.10;99.90
15656;DHT22;7928;43.614;1.456;2022-12-29T09:15:46;12.20;99.90
15656;DHT22;7928;43.614;1.456;2022-12-29T09:18:13;12.20;99.90
15656;DHT22;7928;43.614;1.456;2022-12-29T09:20:40;12.30;99.90
15656;DHT22;7928;43.614;1.456;2022-12-29T09:23:08;12.40;99.90
15656;DHT22;7928;43.614;1.456;2022-12-29T09:25:35;12.40;99.90
15656;DHT22;7928;43.614;1.456;2022-12-29T09:28:02;12.40;99.90
15656;DHT22;7928;43.614;1.456;2022-12-29T09:30:33;12.50;99.90
15656;DHT22;7928;43.614;1.456;2022-12-29T09:33:01;12.60;99.90
15656;DHT22;7928;43.614;1.456;2022-12-29T09:35:28;12.60;99.90
15656;DHT22;7928;43.614;1.456;2022-12-29T09:37:55;12.60;99.90
15656;DHT22;7928;43.614;1.456;2022-12-29T09:40:26;12.70;99.90
15656;DHT22;7928;43.614;1.456;2022-12-29T09:43:19;12.70;99.90
15656;DHT22;7928;43.614;1.456;2022-12-29T09:45:55;12.80;99.90
15656;DHT22;7928;43.614;1.456;2022-12-29T09:48:30;12.70;99.90
15656;DHT22;7928;43.614;1.456;2022-12-29T09:51:02;12.70;99.90
15656;DHT22;7928;43.614;1.456;2022-12-29T09:53:33;12.80;99.90
15656;DHT22;7928;43.614;1.456;2022-12-29T09:56:04;12.70;99.90
15656;DHT22;7928;43.614;1.456;2022-12-29T09:58:36;12.70;99.90
15656;DHT22;7928;43.614;1.456;2022-12-29T10:01:08;12.70;99.90
15656;DHT22;7928;43.614;1.456;2022-12-29T10:03:46;12.70;99.90
15656;DHT22;7928;43.614;1.456;2022-12-29T10:06:18;12.70;99.90
15656;DHT22;7928;43.614;1.456;2022-12-29T10:08:52;12.80;99.90
15656;DHT22;7928;43.614;1.456;2022-12-29T10:11:45;13.00;99.90
15656;DHT22;7928;43.614;1.456;2022-12-29T10:14:33;13.20;99.90
15656;DHT22;7928;43.614;1.456;2022-12-29T10:17:10;13.40;99.90
15656;DHT22;7928;43.614;1.456;2022-12-29T10:20:00;13.60;99.90
15656;DHT22;7928;43.614;1.456;2022-12-29T10:22:38;14.00;99.90
15656;DHT22;7928;43.614;1.456;2022-12-29T10:25:14;14.00;99.90
15656;DHT22;7928;43.614;1.456;2022-12-29T10:27:43;14.10;99.90
15656;DHT22;7928;43.614;1.456;2022-12-29T10:30:14;14.20;99.90
15656;DHT22;7928;43.614;1.456;2022-12-29T10:32:45;14.40;99.90
15656;DHT22;7928;43.614;1.456;2022-12-29T10:35:18;14.50;99.90
15656;DHT22;7928;43.614;1.456;2022-12-29T10:37:50;14.70;99.90
15656;DHT22;7928;43.614;1.456;2022-12-29T10:40:24;14.80;99.90
15656;DHT22;7928;43.614;1.456;2022-12-29T10:42:53;14.70;99.90
15656;DHT22;7928;43.614;1.456;2022-12-29T10:45:22;14.30;99.90
15656;DHT22;7928;43.614;1.456;2022-12-29T10:47:55;14.40;99.90
15656;DHT22;7928;43.614;1.456;2022-12-29T10:50:26;14.20;99.90
15656;DHT22;7928;43.614;1.456;2022-12-29T10:52:56;14.10;99.90
15656;DHT22;7928;43.614;1.456;2022-12-29T10:55:28;14.10;99.90
15656;DHT22;7928;43.614;1.456;2022-12-29T10:58:00;14.10;99.90
15656;DHT22;7928;43.614;1.456;2022-12-29T11:00:30;14.10;99.90
15656;DHT22;7928;43.614;1.456;2022-12-29T11:03:27;14.00;99.90
15656;DHT22;7928;43.614;1.456;2022-12-29T11:06:06;14.00;99.90
15656;DHT22;7928;43.614;1.456;2022-12-29T11:08:37;14.10;99.90
15656;DHT22;7928;43.614;1.456;2022-12-29T11:11:08;14.20;99.90
15656;DHT22;7928;43.614;1.456;2022-12-29T11:13:48;14.30;99.90
15656;DHT22;7928;43.614;1.456;2022-12-29T11:16:27;14.20;99.90
15656;DHT22;7928;43.614;1.456;2022-12-29T11:18:56;14.30;99.90
15656;DHT22;7928;43.614;1.456;2022-12-29T11:21:34;14.60;99.90
15656;DHT22;7928;43.614;1.456;2022-12-29T11:24:19;16.40;99.90
15656;DHT22;7928;43.614;1.456;2022-12-29T11:26:49;19.20;99.90
15656;DHT22;7928;43.614;1.456;2022-12-29T11:29:25;18.90;99.90
15656;DHT22;7928;43.614;1.456;2022-12-29T11:31:55;19.40;99.90
15656;DHT22;7928;43.614;1.456;2022-12-29T11:34:30;19.00;99.90
15656;DHT22;7928;43.614;1.456;2022-12-29T11:37:03;19.30;99.90
15656;DHT22;7928;43.614;1.456;2022-12-29T11:39:36;20.20;99.90
15656;DHT22;7928;43.614;1.456;2022-12-29T11:42:06;19.20;1.00
15656;DHT22;7928;43.614;1.456;2022-12-29T11:44:43;18.20;1.00
15656;DHT22;7928;43.614;1.456;2022-12-29T11:47:20;17.70;7.30
15656;DHT22;7928;43.614;1.456;2022-12-29T11:49:50;17.60;20.60
15656;DHT22;7928;43.614;1.456;2022-12-29T11:52:22;16.80;36.80
15656;DHT22;7928;43.614;1.456;2022-12-29T11:54:50;16.40;53.90
15656;DHT22;7928;43.614;1.456;2022-12-29T11:57:19;16.40;67.90
15656;DHT22;7928;43.614;1.456;2022-12-29T11:59:50;17.30;37.30
15656;DHT22;7928;43.614;1.456;2022-12-29T12:02:54;18.90;1.00
15656;DHT22;7928;43.614;1.456;2022-12-29T12:05:28;19.40;1.00
15656;DHT22;7928;43.614;1.456;2022-12-29T12:08:02;20.60;99.90
15656;DHT22;7928;43.614;1.456;2022-12-29T12:10:34;21.40;99.90
15656;DHT22;7928;43.614;1.456;2022-12-29T12:13:11;20.00;1.00
15656;DHT22;7928;43.614;1.456;2022-12-29T12:15:46;19.20;1.00
15656;DHT22;7928;43.614;1.456;2022-12-29T12:18:18;21.20;99.90
15656;DHT22;7928;43.614;1.456;2022-12-29T12:20:48;22.10;99.90
15656;DHT22;7928;43.614;1.456;2022-12-29T12:23:28;21.70;99.90
15656;DHT22;7928;43.614;1.456;2022-12-29T12:26:04;21.10;99.90
15656;DHT22;7928;43.614;1.456;2022-12-29T12:28:43;20.00;99.90
15656;DHT22;7928;43.614;1.456;2022-12-29T12:31:23;19.10;99.90
15656;DHT22;7928;43.614;1.456;2022-12-29T12:33:57;18.30;99.90
15656;DHT22;7928;43.614;1.456;2022-12-29T12:36:39;18.20;99.90
15656;DHT22;7928;43.614;1.456;2022-12-29T12:39:21;17.90;99.90
15656;DHT22;7928;43.614;1.456;2022-12-29T12:42:00;17.80;99.90
15656;DHT22;7928;43.614;1.456;2022-12-29T12:44:38;17.60;99.90
15656;DHT22;7928;43.614;1.456;2022-12-29T12:47:27;17.40;99.90
15656;DHT22;7928;43.614;1.456;2022-12-29T12:50:22;17.50;99.90
15656;DHT22;7928;43.614;1.456;2022-12-29T12:53:10;17.20;99.90
15656;DHT22;7928;43.614;1.456;2022-12-29T12:55:54;16.90;99.90
15656;DHT22;7928;43.614;1.456;2022-12-29T12:58:28;16.70;99.90
15656;DHT22;7928;43.614;1.456;2022-12-29T13:01:10;16.70;99.90
15656;DHT22;7928;43.614;1.456;2022-12-29T13:03:49;16.60;99.90
15656;DHT22;7928;43.614;1.456;2022-12-29T13:06:25;16.10;99.90
15656;DHT22;7928;43.614;1.456;2022-12-29T13:09:09;15.90;99.90
15656;DHT22;7928;43.614;1.456;2022-12-29T13:11:50;15.60;99.90
15656;DHT22;7928;43.614;1.456;2022-12-29T13:14:30;15.50;99.90
15656;DHT22;7928;43.614;1.456;2022-12-29T13:17:04;15.40;99.90
15656;DHT22;7928;43.614;1.456;2022-12-29T13:19:37;15.40;99.90
15656;DHT22;7928;43.614;1.456;2022-12-29T13:22:09;15.40;99.90
15656;DHT22;7928;43.614;1.456;2022-12-29T13:24:47;15.50;99.90
15656;DHT22;7928;43.614;1.456;2022-12-29T13:27:23;15.50;99.90
15656;DHT22;7928;43.614;1.456;2022-12-29T13:30:00;15.50;99.90
15656;DHT22;7928;43.614;1.456;2022-12-29T13:32:39;15.40;99.90
15656;DHT22;7928;43.614;1.456;2022-12-29T13:35:16;15.30;99.90
15656;DHT22;7928;43.614;1.456;2022-12-29T13:37:50;15.40;99.90
15656;DHT22;7928;43.614;1.456;2022-12-29T13:40:22;15.50;99.90
15656;DHT22;7928;43.614;1.456;2022-12-29T13:42:52;15.60;99.90
15656;DHT22;7928;43.614;1.456;2022-12-29T13:45:22;15.80;99.90
15656;DHT22;7928;43.614;1.456;2022-12-29T13:47:53;16.00;99.90
15656;DHT22;7928;43.614;1.456;2022-12-29T13:50:25;16.00;99.90
15656;DHT22;7928;43.614;1.456;2022-12-29T13:53:00;15.90;99.90
15656;DHT22;7928;43.614;1.456;2022-12-29T13:55:32;15.80;99.90
15656;DHT22;7928;43.614;1.456;2022-12-29T13:58:13;15.70;99.90
15656;DHT22;7928;43.614;1.456;2022-12-29T14:00:49;15.70;99.90
15656;DHT22;7928;43.614;1.456;2022-12-29T14:03:41;15.70;99.90
15656;DHT22;7928;43.614;1.456;2022-12-29T14:06:20;15.70;99.90
15656;DHT22;7928;43.614;1.456;2022-12-29T14:08:48;15.80;99.90
15656;DHT22;7928;43.614;1.456;2022-12-29T14:11:17;15.80;99.90
15656;DHT22;7928;43.614;1.456;2022-12-29T14:13:48;15.70;99.90
15656;DHT22;7928;43.614;1.456;2022-12-29T14:16:27;15.60;99.90
15656;DHT22;7928;43.614;1.456;2022-12-29T14:18:56;15.80;99.90
15656;DHT22;7928;43.614;1.456;2022-12-29T14:21:30;15.90;99.90
15656;DHT22;7928;43.614;1.456;2022-12-29T14:24:40;16.10;99.90
15656;DHT22;7928;43.614;1.456;2022-12-29T14:27:51;16.00;99.90
15656;DHT22;7928;43.614;1.456;2022-12-29T14:30:50;16.70;99.90
15656;DHT22;7928;43.614;1.456;2022-12-29T14:33:18;18.40;99.90
15656;DHT22;7928;43.614;1.456;2022-12-29T14:35:49;18.30;99.90
15656;DHT22;7928;43.614;1.456;2022-12-29T14:38:26;17.70;99.90
15656;DHT22;7928;43.614;1.456;2022-12-29T14:41:22;17.20;99.90
15656;DHT22;7928;43.614;1.456;2022-12-29T14:43:57;16.90;99.90
15656;DHT22;7928;43.614;1.456;2022-12-29T14:46:28;16.40;99.90
15656;DHT22;7928;43.614;1.456;2022-12-29T14:49:16;16.20;99.90
15656;DHT22;7928;43.614;1.456;2022-12-29T14:51:45;15.90;99.90
15656;DHT22;7928;43.614;1.456;2022-12-29T14:54:45;15.60;99.90
15656;DHT22;7928;43.614;1.456;2022-12-29T14:57:20;15.50;99.90
15656;DHT22;7928;43.614;1.456;2022-12-29T14:59:53;15.30;99.90
15656;DHT22;7928;43.614;1.456;2022-12-29T15:02:24;15.30;99.90
15656;DHT22;7928;43.614;1.456;2022-12-29T15:04:54;15.40;99.90
15656;DHT22;7928;43.614;1.456;2022-12-29T15:07:27;15.40;99.90
15656;DHT22;7928;43.614;1.456;2022-12-29T15:09:59;15.20;99.90
15656;DHT22;7928;43.614;1.456;2022-12-29T15:12:35;15.30;99.90
15656;DHT22;7928;43.614;1.456;2022-12-29T15:15:18;15.20;99.90
15656;DHT22;7928;43.614;1.456;2022-12-29T15:17:47;15.20;99.90
15656;DHT22;7928;43.614;1.456;2022-12-29T15:20:20;15.10;99.90
15656;DHT22;7928;43.614;1.456;2022-12-29T15:22:52;15.10;99.90
15656;DHT22;7928;43.614;1.456;2022-12-29T15:25:20;14.90;99.90
15656;DHT22;7928;43.614;1.456;2022-12-29T15:27:49;14.80;99.90
15656;DHT22;7928;43.614;1.456;2022-12-29T15:32:51;14.70;99.90
15656;DHT22;7928;43.614;1.456;2022-12-29T15:35:30;14.70;99.90
15656;DHT22;7928;43.614;1.456;2022-12-29T15:37:58;14.70;99.90
15656;DHT22;7928;43.614;1.456;2022-12-29T15:40:28;14.60;99.90
15656;DHT22;7928;43.614;1.456;2022-12-29T15:43:06;14.50;99.90
15656;DHT22;7928;43.614;1.456;2022-12-29T15:45:36;14.40;99.90
15656;DHT22;7928;43.614;1.456;2022-12-29T15:48:07;14.30;99.90
15656;DHT22;7928;43.614;1.456;2022-12-29T15:50:36;14.30;99.90
15656;DHT22;7928;43.614;1.456;2022-12-29T15:53:10;14.30;99.90
15656;DHT22;7928;43.614;1.456;2022-12-29T15:55:39;14.20;99.90
15656;DHT22;7928;43.614;1.456;2022-12-29T15:58:19;14.20;99.90
15656;DHT22;7928;43.614;1.456;2022-12-29T16:00:49;14.20;99.90
15656;DHT22;7928;43.614;1.456;2022-12-29T16:03:20;14.10;99.90
15656;DHT22;7928;43.614;1.456;2022-12-29T16:05:53;14.00;99.90
15656;DHT22;7928;43.614;1.456;2022-12-29T16:08:34;14.00;99.90
15656;DHT22;7928;43.614;1.456;2022-12-29T16:11:07;14.00;99.90
15656;DHT22;7928;43.614;1.456;2022-12-29T16:13:43;14.00;99.90
15656;DHT22;7928;43.614;1.456;2022-12-29T16:16:16;14.00;99.90
15656;DHT22;7928;43.614;1.456;2022-12-29T16:18:46;14.00;99.90
15656;DHT22;7928;43.614;1.456;2022-12-29T16:21:18;14.00;99.90
15656;DHT22;7928;43.614;1.456;2022-12-29T16:23:50;13.90;99.90